sensor_id;sensor_type;location;lat;lon;timestamp;temperature;humidity
25188;DHT22;13141;50.414;8.050;2023-04-23T00:00:48;14.60;99.90
25188;DHT22;13141;50.414;8.050;2023-04-23T00:03:17;14.60;99.90
25188;DHT22;13141;50.414;8.050;2023-04-23T00:05:43;14.50;99.90
25188;DHT22;13141;50.414;8.050;2023-04-23T00:08:10;14.30;99.90
25188;DHT22;13141;50.414;8.050;2023-04-23T00:10:36;14.30;99.90
25188;DHT22;13141;50.414;8.050;2023-04-23T00:13:02;14.20;99.90
25188;DHT22;13141;50.414;8.050;2023-04-23T00:15:28;14.10;99.90
25188;DHT22;13141;50.414;8.050;2023-04-23T00:17:54;14.20;99.90
25188;DHT22;13141;50.414;8.050;2023-04-23T00:20:21;14.10;99.90
25188;DHT22;13141;50.414;8.050;2023-04-23T00:22:47;14.10;99.90
25188;DHT22;13141;50.414;8.050;2023-04-23T00:25:12;14.00;99.90
25188;DHT22;13141;50.414;8.050;2023-04-23T00:27:38;14.00;99.90
25188;DHT22;13141;50.414;8.050;2023-04-23T00:30:05;14.10;99.90
25188;DHT22;13141;50.414;8.050;2023-04-23T00:32:31;14.10;99.90
25188;DHT22;13141;50.414;8.050;2023-04-23T00:34:56;14.10;99.90
25188;DHT22;13141;50.414;8.050;2023-04-23T00:37:24;14.10;99.90
25188;DHT22;13141;50.414;8.050;2023-04-23T00:39:49;14.10;99.90
25188;DHT22;13141;50.414;8.050;2023-04-23T00:42:15;14.00;99.90
25188;DHT22;13141;50.414;8.050;2023-04-23T00:44:41;14.00;99.90
25188;DHT22;13141;50.414;8.050;2023-04-23T00:47:07;13.90;99.90
25188;DHT22;13141;50.414;8.050;2023-04-23T00:49:33;14.00;99.90
25188;DHT22;13141;50.414;8.050;2023-04-23T00:51:59;14.00;99.90
25188;DHT22;13141;50.414;8.050;2023-04-23T00:54:26;14.00;99.90
25188;DHT22;13141;50.414;8.050;2023-04-23T00:56:52;13.90;99.90
25188;DHT22;13141;50.414;8.050;2023-04-23T00:59:19;13.90;99.90
25188;DHT22;13141;50.414;8.050;2023-04-23T01:01:44;14.10;99.90
25188;DHT22;13141;50.414;8.050;2023-04-23T01:04:11;13.80;99.90
25188;DHT22;13141;50.414;8.050;2023-04-23T01:06:37;13.80;99.90
25188;DHT22;13141;50.414;8.050;2023-04-23T01:09:03;13.70;99.90
25188;DHT22;13141;50.414;8.050;2023-04-23T01:11:31;13.70;99.90
25188;DHT22;13141;50.414;8.050;2023-04-23T01:13:57;13.90;99.90
25188;DHT22;13141;50.414;8.050;2023-04-23T01:16:23;13.70;99.90
25188;DHT22;13141;50.414;8.050;2023-04-23T01:18:49;13.70;99.90
25188;DHT22;13141;50.414;8.050;2023-04-23T01:21:16;13.60;99.90
25188;DHT22;13141;50.414;8.050;2023-04-23T01:23:43;13.60;99.90
25188;DHT22;13141;50.414;8.050;2023-04-23T01:26:09;13.60;99.90
25188;DHT22;13141;50.414;8.050;2023-04-23T01:28:35;13.60;99.90
25188;DHT22;13141;50.414;8.050;2023-04-23T01:31:01;13.60;99.90
25188;DHT22;13141;50.414;8.050;2023-04-23T01:33:27;13.60;99.90
25188;DHT22;13141;50.414;8.050;2023-04-23T01:35:53;13.50;99.90
25188;DHT22;13141;50.414;8.050;2023-04-23T01:38:22;13.80;99.90
25188;DHT22;13141;50.414;8.050;2023-04-23T01:40:49;13.40;99.90
25188;DHT22;13141;50.414;8.050;2023-04-23T01:43:14;13.50;99.90
25188;DHT22;13141;50.414;8.050;2023-04-23T01:45:41;13.50;99.90
25188;DHT22;13141;50.414;8.050;2023-04-23T01:48:07;13.50;99.90
25188;DHT22;13141;50.414;8.050;2023-04-23T01:50:33;13.50;99.90
25188;DHT22;13141;50.414;8.050;2023-04-23T01:52:58;13.50;99.90
25188;DHT22;13141;50.414;8.050;2023-04-23T01:55:24;13.50;99.90
25188;DHT22;13141;50.414;8.050;2023-04-23T01:57:51;13.50;99.90
25188;DHT22;13141;50.414;8.050;2023-04-23T02:00:17;13.60;99.90
25188;DHT22;13141;50.414;8.050;2023-04-23T02:02:43;13.50;99.90
25188;DHT22;13141;50.414;8.050;2023-04-23T02:05:11;13.60;99.90
25188;DHT22;13141;50.414;8.050;2023-04-23T02:07:37;13.60;99.90
25188;DHT22;13141;50.414;8.050;2023-04-23T02:10:03;13.70;99.90
25188;DHT22;13141;50.414;8.050;2023-04-23T02:12:29;13.70;99.90
25188;DHT22;13141;50.414;8.050;2023-04-23T02:14:56;13.80;99.90
25188;DHT22;13141;50.414;8.050;2023-04-23T02:17:22;13.80;99.90
25188;DHT22;13141;50.414;8.050;2023-04-23T02:19:47;13.70;99.90
25188;DHT22;13141;50.414;8.050;2023-04-23T02:22:13;13.70;99.90
25188;DHT22;13141;50.414;8.050;2023-04-23T02:24:39;13.70;99.90
25188;DHT22;13141;50.414;8.050;2023-04-23T02:27:04;13.80;99.90
25188;DHT22;13141;50.414;8.050;2023-04-23T02:29:30;13.90;99.90
25188;DHT22;13141;50.414;8.050;2023-04-23T02:31:57;14.00;99.90
25188;DHT22;13141;50.414;8.050;2023-04-23T02:34:23;13.90;99.90
25188;DHT22;13141;50.414;8.050;2023-04-23T02:36:48;13.80;99.90
25188;DHT22;13141;50.414;8.050;2023-04-23T02:39:14;13.80;99.90
25188;DHT22;13141;50.414;8.050;2023-04-23T02:41:40;13.60;99.90
25188;DHT22;13141;50.414;8.050;2023-04-23T02:44:06;13.60;99.90
25188;DHT22;13141;50.414;8.050;2023-04-23T02:46:31;13.50;99.90
25188;DHT22;13141;50.414;8.050;2023-04-23T02:48:59;13.40;99.90
25188;DHT22;13141;50.414;8.050;2023-04-23T02:51:25;13.40;99.90
25188;DHT22;13141;50.414;8.050;2023-04-23T02:53:50;13.40;99.90
25188;DHT22;13141;50.414;8.050;2023-04-23T02:56:16;13.50;99.90
25188;DHT22;13141;50.414;8.050;2023-04-23T02:58:42;13.50;99.90
25188;DHT22;13141;50.414;8.050;2023-04-23T03:01:07;13.50;99.90
25188;DHT22;13141;50.414;8.050;2023-04-23T03:03:33;13.50;99.90
25188;DHT22;13141;50.414;8.050;2023-04-23T03:06:01;13.50;99.90
25188;DHT22;13141;50.414;8.050;2023-04-23T03:08:27;13.50;99.90
25188;DHT22;13141;50.414;8.050;2023-04-23T03:10:52;13.60;99.90
25188;DHT22;13141;50.414;8.050;2023-04-23T03:13:18;13.60;99.90
25188;DHT22;13141;50.414;8.050;2023-04-23T03:15:44;13.60;99.90
25188;DHT22;13141;50.414;8.050;2023-04-23T03:18:10;13.60;99.90
25188;DHT22;13141;50.414;8.050;2023-04-23T03:20:36;13.60;99.90
25188;DHT22;13141;50.414;8.050;2023-04-23T03:23:04;13.60;99.90
25188;DHT22;13141;50.414;8.050;2023-04-23T03:25:30;13.60;99.90
25188;DHT22;13141;50.414;8.050;2023-04-23T03:27:56;13.60;99.90
25188;DHT22;13141;50.414;8.050;2023-04-23T03:30:22;13.60;99.90
25188;DHT22;13141;50.414;8.050;2023-04-23T03:32:49;13.50;99.90
25188;DHT22;13141;50.414;8.050;2023-04-23T03:35:15;13.50;99.90
25188;DHT22;13141;50.414;8.050;2023-04-23T03:37:41;13.50;99.90
25188;DHT22;13141;50.414;8.050;2023-04-23T03:40:09;13.50;99.90
25188;DHT22;13141;50.414;8.050;2023-04-23T03:42:35;13.50;99.90
25188;DHT22;13141;50.414;8.050;2023-04-23T03:45:01;13.40;99.90
25188;DHT22;13141;50.414;8.050;2023-04-23T03:47:27;13.40;99.90
25188;DHT22;13141;50.414;8.050;2023-04-23T03:49:54;13.50;99.90
25188;DHT22;13141;50.414;8.050;2023-04-23T03:52:19;13.50;99.90
25188;DHT22;13141;50.414;8.050;2023-04-23T03:54:46;13.40;99.90
25188;DHT22;13141;50.414;8.050;2023-04-23T03:57:13;13.30;99.90
25188;DHT22;13141;50.414;8.050;2023-04-23T03:59:39;13.30;99.90
25188;DHT22;13141;50.414;8.050;2023-04-23T04:02:05;13.30;99.90
25188;DHT22;13141;50.414;8.050;2023-04-23T04:04:31;13.30;99.90
25188;DHT22;13141;50.414;8.050;2023-04-23T04:06:57;13.30;99.90
25188;DHT22;13141;50.414;8.050;2023-04-23T04:09:24;13.40;99.90
25188;DHT22;13141;50.414;8.050;2023-04-23T04:11:50;13.40;99.90
25188;DHT22;13141;50.414;8.050;2023-04-23T04:14:18;13.50;99.90
25188;DHT22;13141;50.414;8.050;2023-04-23T04:16:44;13.40;99.90
25188;DHT22;13141;50.414;8.050;2023-04-23T04:19:10;13.30;99.90
25188;DHT22;13141;50.414;8.050;2023-04-23T04:21:36;13.10;99.90
25188;DHT22;13141;50.414;8.050;2023-04-23T04:24:02;13.00;99.90
25188;DHT22;13141;50.414;8.050;2023-04-23T04:26:28;13.00;99.90
25188;DHT22;13141;50.414;8.050;2023-04-23T04:28:54;13.00;99.90
25188;DHT22;13141;50.414;8.050;2023-04-23T04:31:22;13.00;99.90
25188;DHT22;13141;50.414;8.050;2023-04-23T04:33:48;13.00;99.90
25188;DHT22;13141;50.414;8.050;2023-04-23T04:36:15;12.80;99.90
25188;DHT22;13141;50.414;8.050;2023-04-23T04:38:41;13.10;99.90
25188;DHT22;13141;50.414;8.050;2023-04-23T04:41:07;13.10;99.90
25188;DHT22;13141;50.414;8.050;2023-04-23T04:43:33;13.00;99.90
25188;DHT22;13141;50.414;8.050;2023-04-23T04:46:00;13.00;99.90
25188;DHT22;13141;50.414;8.050;2023-04-23T04:48:27;13.00;99.90
25188;DHT22;13141;50.414;8.050;2023-04-23T04:50:53;13.00;99.90
25188;DHT22;13141;50.414;8.050;2023-04-23T04:53:19;13.10;99.90
25188;DHT22;13141;50.414;8.050;2023-04-23T04:55:45;13.20;99.90
25188;DHT22;13141;50.414;8.050;2023-04-23T04:58:11;13.30;99.90
25188;DHT22;13141;50.414;8.050;2023-04-23T05:00:38;13.30;99.90
25188;DHT22;13141;50.414;8.050;2023-04-23T05:03:04;13.30;99.90
25188;DHT22;13141;50.414;8.050;2023-04-23T05:05:32;13.30;99.90
25188;DHT22;13141;50.414;8.050;2023-04-23T05:07:59;13.40;99.90
25188;DHT22;13141;50.414;8.050;2023-04-23T05:10:25;13.40;99.90
25188;DHT22;13141;50.414;8.050;2023-04-23T05:12:51;13.40;99.90
25188;DHT22;13141;50.414;8.050;2023-04-23T05:15:17;13.40;99.90
25188;DHT22;13141;50.414;8.050;2023-04-23T05:17:43;13.40;99.90
25188;DHT22;13141;50.414;8.050;2023-04-23T05:20:10;13.30;99.90
25188;DHT22;13141;50.414;8.050;2023-04-23T05:22:38;13.20;99.90
25188;DHT22;13141;50.414;8.050;2023-04-23T05:25:04;13.10;99.90
25188;DHT22;13141;50.414;8.050;2023-04-23T05:27:31;13.00;99.90
25188;DHT22;13141;50.414;8.050;2023-04-23T05:29:57;13.00;99.90
25188;DHT22;13141;50.414;8.050;2023-04-23T05:32:23;13.00;99.90
25188;DHT22;13141;50.414;8.050;2023-04-23T05:34:49;13.00;99.90
25188;DHT22;13141;50.414;8.050;2023-04-23T05:37:15;13.00;99.90
25188;DHT22;13141;50.414;8.050;2023-04-23T05:39:43;13.10;99.90
25188;DHT22;13141;50.414;8.050;2023-04-23T05:42:09;13.10;99.90
25188;DHT22;13141;50.414;8.050;2023-04-23T05:44:36;13.20;99.90
25188;DHT22;13141;50.414;8.050;2023-04-23T05:47:02;13.10;99.90
25188;DHT22;13141;50.414;8.050;2023-04-23T05:49:28;13.10;99.90
25188;DHT22;13141;50.414;8.050;2023-04-23T05:51:54;13.00;99.90
25188;DHT22;13141;50.414;8.050;2023-04-23T05:54:20;13.00;99.90
25188;DHT22;13141;50.414;8.050;2023-04-23T05:56:48;13.00;99.90
25188;DHT22;13141;50.414;8.050;2023-04-23T05:59:14;13.00;99.90
25188;DHT22;13141;50.414;8.050;2023-04-23T06:01:40;13.00;99.90
25188;DHT22;13141;50.414;8.050;2023-04-23T06:04:06;13.00;99.90
25188;DHT22;13141;50.414;8.050;2023-04-23T06:06:32;13.20;99.90
25188;DHT22;13141;50.414;8.050;2023-04-23T06:08:58;13.30;99.90
25188;DHT22;13141;50.414;8.050;2023-04-23T06:11:24;13.40;99.90
25188;DHT22;13141;50.414;8.050;2023-04-23T06:13:51;13.40;99.90
25188;DHT22;13141;50.414;8.050;2023-04-23T06:16:17;13.50;99.90
25188;DHT22;13141;50.414;8.050;2023-04-23T06:18:43;13.40;99.90
25188;DHT22;13141;50.414;8.050;2023-04-23T06:21:09;13.30;99.90
25188;DHT22;13141;50.414;8.050;2023-04-23T06:23:35;13.30;99.90
25188;DHT22;13141;50.414;8.050;2023-04-23T06:26:01;13.30;99.90
25188;DHT22;13141;50.414;8.050;2023-04-23T06:28:28;13.30;99.90
25188;DHT22;13141;50.414;8.050;2023-04-23T06:30:55;13.40;99.90
25188;DHT22;13141;50.414;8.050;2023-04-23T06:33:21;13.10;99.90
25188;DHT22;13141;50.414;8.050;2023-04-23T06:35:47;13.50;99.90
25188;DHT22;13141;50.414;8.050;2023-04-23T06:38:13;13.70;99.90
25188;DHT22;13141;50.414;8.050;2023-04-23T06:40:40;13.70;99.90
25188;DHT22;13141;50.414;8.050;2023-04-23T06:43:06;13.90;99.90
25188;DHT22;13141;50.414;8.050;2023-04-23T06:45:32;13.90;99.90
25188;DHT22;13141;50.414;8.050;2023-04-23T06:48:00;14.10;99.90
25188;DHT22;13141;50.414;8.050;2023-04-23T06:50:26;14.20;99.90
25188;DHT22;13141;50.414;8.050;2023-04-23T06:52:52;14.30;99.90
25188;DHT22;13141;50.414;8.050;2023-04-23T06:55:19;14.30;99.90
25188;DHT22;13141;50.414;8.050;2023-04-23T06:57:45;14.20;99.90
25188;DHT22;13141;50.414;8.050;2023-04-23T07:00:12;14.20;99.90
25188;DHT22;13141;50.414;8.050;2023-04-23T07:02:38;14.20;99.90
25188;DHT22;13141;50.414;8.050;2023-04-23T07:05:07;14.10;99.90
25188;DHT22;13141;50.414;8.050;2023-04-23T07:07:34;14.20;99.90
25188;DHT22;13141;50.414;8.050;2023-04-23T07:10:00;14.20;99.90
25188;DHT22;13141;50.414;8.050;2023-04-23T07:12:26;14.20;99.90
25188;DHT22;13141;50.414;8.050;2023-04-23T07:14:52;14.20;99.90
25188;DHT22;13141;50.414;8.050;2023-04-23T07:17:18;14.30;99.90
25188;DHT22;13141;50.414;8.050;2023-04-23T07:19:44;14.40;99.90
25188;DHT22;13141;50.414;8.050;2023-04-23T07:22:12;14.50;99.90
25188;DHT22;13141;50.414;8.050;2023-04-23T07:24:38;14.70;99.90
25188;DHT22;13141;50.414;8.050;2023-04-23T07:27:05;14.80;99.90
25188;DHT22;13141;50.414;8.050;2023-04-23T07:29:31;14.90;99.90
25188;DHT22;13141;50.414;8.050;2023-04-23T07:31:57;15.00;99.90
25188;DHT22;13141;50.414;8.050;2023-04-23T07:34:23;15.10;99.90
25188;DHT22;13141;50.414;8.050;2023-04-23T07:36:49;15.00;99.90
25188;DHT22;13141;50.414;8.050;2023-04-23T07:39:17;14.90;99.90
25188;DHT22;13141;50.414;8.050;2023-04-23T07:41:43;14.80;99.90
25188;DHT22;13141;50.414;8.050;2023-04-23T07:44:10;14.80;99.90
25188;DHT22;13141;50.414;8.050;2023-04-23T07:46:36;14.70;99.90
25188;DHT22;13141;50.414;8.050;2023-04-23T07:49:02;14.60;99.90
25188;DHT22;13141;50.414;8.050;2023-04-23T07:51:27;14.60;99.90
25188;DHT22;13141;50.414;8.050;2023-04-23T07:53:54;14.70;99.90
25188;DHT22;13141;50.414;8.050;2023-04-23T07:56:22;14.80;99.90
25188;DHT22;13141;50.414;8.050;2023-04-23T07:58:48;14.90;99.90
25188;DHT22;13141;50.414;8.050;2023-04-23T08:01:14;15.00;99.90
25188;DHT22;13141;50.414;8.050;2023-04-23T08:03:40;15.20;99.90
25188;DHT22;13141;50.414;8.050;2023-04-23T08:06:06;15.20;99.90
25188;DHT22;13141;50.414;8.050;2023-04-23T08:08:32;15.30;99.90
25188;DHT22;13141;50.414;8.050;2023-04-23T08:10:58;15.30;99.90
25188;DHT22;13141;50.414;8.050;2023-04-23T08:13:26;15.40;99.90
25188;DHT22;13141;50.414;8.050;2023-04-23T08:15:52;15.30;99.90
25188;DHT22;13141;50.414;8.050;2023-04-23T08:18:18;15.20;99.90
25188;DHT22;13141;50.414;8.050;2023-04-23T08:20:44;15.10;99.90
25188;DHT22;13141;50.414;8.050;2023-04-23T08:23:10;15.20;99.90
25188;DHT22;13141;50.414;8.050;2023-04-23T08:25:36;15.30;99.90
25188;DHT22;13141;50.414;8.050;2023-04-23T08:28:02;15.20;99.90
25188;DHT22;13141;50.414;8.050;2023-04-23T08:30:29;15.30;99.90
25188;DHT22;13141;50.414;8.050;2023-04-23T08:32:56;15.30;99.90
25188;DHT22;13141;50.414;8.050;2023-04-23T08:35:23;15.30;99.90
25188;DHT22;13141;50.414;8.050;2023-04-23T08:37:49;15.30;99.90
25188;DHT22;13141;50.414;8.050;2023-04-23T08:40:15;15.40;99.90
25188;DHT22;13141;50.414;8.050;2023-04-23T08:42:44;15.50;99.90
25188;DHT22;13141;50.414;8.050;2023-04-23T08:45:13;15.50;99.90
25188;DHT22;13141;50.414;8.050;2023-04-23T08:47:42;15.60;99.90
25188;DHT22;13141;50.414;8.050;2023-04-23T08:50:09;15.50;99.90
25188;DHT22;13141;50.414;8.050;2023-04-23T08:52:39;15.70;99.90
25188;DHT22;13141;50.414;8.050;2023-04-23T08:55:07;15.70;99.90
25188;DHT22;13141;50.414;8.050;2023-04-23T08:57:33;15.70;99.90
25188;DHT22;13141;50.414;8.050;2023-04-23T09:00:02;15.80;99.90
25188;DHT22;13141;50.414;8.050;2023-04-23T09:02:29;16.10;99.90
25188;DHT22;13141;50.414;8.050;2023-04-23T09:04:56;16.10;99.90
25188;DHT22;13141;50.414;8.050;2023-04-23T09:07:23;16.30;99.90
25188;DHT22;13141;50.414;8.050;2023-04-23T09:09:49;16.50;99.90
25188;DHT22;13141;50.414;8.050;2023-04-23T09:12:15;17.00;99.90
25188;DHT22;13141;50.414;8.050;2023-04-23T09:14:41;16.90;99.90
25188;DHT22;13141;50.414;8.050;2023-04-23T09:17:07;16.70;99.90
25188;DHT22;13141;50.414;8.050;2023-04-23T09:19:34;16.60;99.90
25188;DHT22;13141;50.414;8.050;2023-04-23T09:22:02;16.50;99.90
25188;DHT22;13141;50.414;8.050;2023-04-23T09:24:28;16.40;99.90
25188;DHT22;13141;50.414;8.050;2023-04-23T09:26:56;16.40;99.90
25188;DHT22;13141;50.414;8.050;2023-04-23T09:29:22;16.40;99.90
25188;DHT22;13141;50.414;8.050;2023-04-23T09:31:50;17.20;99.90
25188;DHT22;13141;50.414;8.050;2023-04-23T09:34:17;17.60;99.90
25188;DHT22;13141;50.414;8.050;2023-04-23T09:36:44;17.80;99.90
25188;DHT22;13141;50.414;8.050;2023-04-23T09:39:16;17.80;99.90
25188;DHT22;13141;50.414;8.050;2023-04-23T09:41:43;17.70;99.90
25188;DHT22;13141;50.414;8.050;2023-04-23T09:44:09;18.00;99.90
25188;DHT22;13141;50.414;8.050;2023-04-23T09:46:36;18.00;99.90
25188;DHT22;13141;50.414;8.050;2023-04-23T09:49:03;18.00;99.90
25188;DHT22;13141;50.414;8.050;2023-04-23T09:51:30;18.00;99.90
25188;DHT22;13141;50.414;8.050;2023-04-23T09:53:56;18.00;99.90
25188;DHT22;13141;50.414;8.050;2023-04-23T09:56:24;17.80;99.90
25188;DHT22;13141;50.414;8.050;2023-04-23T09:58:50;17.80;99.90
25188;DHT22;13141;50.414;8.050;2023-04-23T10:01:16;17.60;99.90
25188;DHT22;13141;50.414;8.050;2023-04-23T10:03:42;17.60;99.90
25188;DHT22;13141;50.414;8.050;2023-04-23T10:06:12;17.70;99.90
25188;DHT22;13141;50.414;8.050;2023-04-23T10:08:39;17.80;99.90
25188;DHT22;13141;50.414;8.050;2023-04-23T10:11:05;18.00;99.90
25188;DHT22;13141;50.414;8.050;2023-04-23T10:13:33;18.40;99.90
25188;DHT22;13141;50.414;8.050;2023-04-23T10:16:00;18.60;99.90
25188;DHT22;13141;50.414;8.050;2023-04-23T10:18:29;18.70;99.90
25188;DHT22;13141;50.414;8.050;2023-04-23T10:20:57;18.90;99.90
25188;DHT22;13141;50.414;8.050;2023-04-23T10:23:25;18.70;99.60
25188;DHT22;13141;50.414;8.050;2023-04-23T10:25:52;18.80;99.90
25188;DHT22;13141;50.414;8.050;2023-04-23T10:28:21;19.20;99.90
25188;DHT22;13141;50.414;8.050;2023-04-23T10:30:50;19.70;99.80
25188;DHT22;13141;50.414;8.050;2023-04-23T10:33:17;19.70;99.20
25188;DHT22;13141;50.414;8.050;2023-04-23T10:35:43;19.80;98.70
25188;DHT22;13141;50.414;8.050;2023-04-23T10:38:09;19.70;99.20
25188;DHT22;13141;50.414;8.050;2023-04-23T10:40:36;19.50;98.40
25188;DHT22;13141;50.414;8.050;2023-04-23T10:43:02;19.20;99.40
25188;DHT22;13141;50.414;8.050;2023-04-23T10:45:30;18.70;99.90
25188;DHT22;13141;50.414;8.050;2023-04-23T10:47:58;18.30;99.90
25188;DHT22;13141;50.414;8.050;2023-04-23T10:50:25;18.20;99.90
25188;DHT22;13141;50.414;8.050;2023-04-23T10:52:52;18.20;99.90
25188;DHT22;13141;50.414;8.050;2023-04-23T10:55:22;18.30;99.90
25188;DHT22;13141;50.414;8.050;2023-04-23T10:57:58;18.60;99.90
25188;DHT22;13141;50.414;8.050;2023-04-23T11:00:25;18.80;99.70
25188;DHT22;13141;50.414;8.050;2023-04-23T11:02:52;18.70;98.80
25188;DHT22;13141;50.414;8.050;2023-04-23T11:05:21;18.90;98.10
25188;DHT22;13141;50.414;8.050;2023-04-23T11:08:02;19.00;97.50
25188;DHT22;13141;50.414;8.050;2023-04-23T11:10:30;19.00;98.10
25188;DHT22;13141;50.414;8.050;2023-04-23T11:12:56;19.00;98.00
25188;DHT22;13141;50.414;8.050;2023-04-23T11:15:23;19.20;97.50
25188;DHT22;13141;50.414;8.050;2023-04-23T11:17:59;19.50;96.80
25188;DHT22;13141;50.414;8.050;2023-04-23T11:20:26;19.70;96.70
25188;DHT22;13141;50.414;8.050;2023-04-23T11:22:53;19.70;96.90
25188;DHT22;13141;50.414;8.050;2023-04-23T11:25:20;20.00;95.90
25188;DHT22;13141;50.414;8.050;2023-04-23T11:27:47;20.10;96.10
25188;DHT22;13141;50.414;8.050;2023-04-23T11:30:15;19.90;97.50
25188;DHT22;13141;50.414;8.050;2023-04-23T11:32:44;19.60;97.90
25188;DHT22;13141;50.414;8.050;2023-04-23T11:35:12;19.50;98.40
25188;DHT22;13141;50.414;8.050;2023-04-23T11:37:41;19.10;98.10
25188;DHT22;13141;50.414;8.050;2023-04-23T11:40:09;18.90;98.30
25188;DHT22;13141;50.414;8.050;2023-04-23T11:42:40;18.80;98.20
25188;DHT22;13141;50.414;8.050;2023-04-23T11:45:13;18.70;98.80
25188;DHT22;13141;50.414;8.050;2023-04-23T11:47:40;18.70;98.20
25188;DHT22;13141;50.414;8.050;2023-04-23T11:50:07;18.50;98.20
25188;DHT22;13141;50.414;8.050;2023-04-23T11:52:33;18.60;97.40
25188;DHT22;13141;50.414;8.050;2023-04-23T11:55:05;18.60;97.50
25188;DHT22;13141;50.414;8.050;2023-04-23T11:57:34;18.70;98.40
25188;DHT22;13141;50.414;8.050;2023-04-23T12:00:00;18.70;98.10
25188;DHT22;13141;50.414;8.050;2023-04-23T12:02:26;18.80;98.60
25188;DHT22;13141;50.414;8.050;2023-04-23T12:04:51;19.20;98.30
25188;DHT22;13141;50.414;8.050;2023-04-23T12:07:17;19.20;97.70
25188;DHT22;13141;50.414;8.050;2023-04-23T12:09:44;19.50;97.80
25188;DHT22;13141;50.414;8.050;2023-04-23T12:12:11;19.60;97.20
25188;DHT22;13141;50.414;8.050;2023-04-23T12:14:37;20.30;97.10
25188;DHT22;13141;50.414;8.050;2023-04-23T12:17:09;20.60;97.10
25188;DHT22;13141;50.414;8.050;2023-04-23T12:19:35;21.00;96.80
25188;DHT22;13141;50.414;8.050;2023-04-23T12:22:02;21.60;96.10
25188;DHT22;13141;50.414;8.050;2023-04-23T12:24:30;22.30;96.00
25188;DHT22;13141;50.414;8.050;2023-04-23T12:26:57;22.90;96.70
25188;DHT22;13141;50.414;8.050;2023-04-23T12:29:25;23.60;96.20
25188;DHT22;13141;50.414;8.050;2023-04-23T12:31:52;23.60;92.10
25188;DHT22;13141;50.414;8.050;2023-04-23T12:34:19;23.20;90.50
25188;DHT22;13141;50.414;8.050;2023-04-23T12:36:48;22.60;90.80
25188;DHT22;13141;50.414;8.050;2023-04-23T12:39:28;22.70;91.60
25188;DHT22;13141;50.414;8.050;2023-04-23T12:41:55;22.20;88.60
25188;DHT22;13141;50.414;8.050;2023-04-23T12:44:24;21.30;88.30
25188;DHT22;13141;50.414;8.050;2023-04-23T12:46:54;21.00;91.80
25188;DHT22;13141;50.414;8.050;2023-04-23T12:49:20;21.10;92.50
25188;DHT22;13141;50.414;8.050;2023-04-23T12:51:46;21.20;91.60
25188;DHT22;13141;50.414;8.050;2023-04-23T12:54:11;21.00;91.50
25188;DHT22;13141;50.414;8.050;2023-04-23T12:56:37;20.90;92.50
25188;DHT22;13141;50.414;8.050;2023-04-23T12:59:03;20.60;91.60
25188;DHT22;13141;50.414;8.050;2023-04-23T13:01:30;20.70;91.80
25188;DHT22;13141;50.414;8.050;2023-04-23T13:03:56;20.90;90.40
25188;DHT22;13141;50.414;8.050;2023-04-23T13:06:22;20.90;91.00
25188;DHT22;13141;50.414;8.050;2023-04-23T13:08:49;20.90;91.30
25188;DHT22;13141;50.414;8.050;2023-04-23T13:11:15;20.70;90.30
25188;DHT22;13141;50.414;8.050;2023-04-23T13:13:40;20.40;90.00
25188;DHT22;13141;50.414;8.050;2023-04-23T13:16:06;20.10;90.50
25188;DHT22;13141;50.414;8.050;2023-04-23T13:18:34;20.00;89.40
25188;DHT22;13141;50.414;8.050;2023-04-23T13:21:00;20.10;90.70
25188;DHT22;13141;50.414;8.050;2023-04-23T13:23:26;20.60;89.60
25188;DHT22;13141;50.414;8.050;2023-04-23T13:25:51;20.90;90.00
25188;DHT22;13141;50.414;8.050;2023-04-23T13:28:17;20.80;88.70
25188;DHT22;13141;50.414;8.050;2023-04-23T13:30:43;20.60;88.60
25188;DHT22;13141;50.414;8.050;2023-04-23T13:33:08;20.80;87.60
25188;DHT22;13141;50.414;8.050;2023-04-23T13:35:36;20.90;85.70
25188;DHT22;13141;50.414;8.050;2023-04-23T13:38:01;20.70;87.10
25188;DHT22;13141;50.414;8.050;2023-04-23T13:40:27;20.70;86.40
25188;DHT22;13141;50.414;8.050;2023-04-23T13:42:53;20.40;85.90
25188;DHT22;13141;50.414;8.050;2023-04-23T13:45:19;20.30;87.60
25188;DHT22;13141;50.414;8.050;2023-04-23T13:47:45;20.10;86.80
25188;DHT22;13141;50.414;8.050;2023-04-23T13:50:11;20.20;85.90
25188;DHT22;13141;50.414;8.050;2023-04-23T13:52:38;20.70;84.00
25188;DHT22;13141;50.414;8.050;2023-04-23T13:55:05;20.80;84.60
25188;DHT22;13141;50.414;8.050;2023-04-23T13:57:30;21.60;85.30
25188;DHT22;13141;50.414;8.050;2023-04-23T13:59:56;21.70;81.80
25188;DHT22;13141;50.414;8.050;2023-04-23T14:02:22;21.90;83.10
25188;DHT22;13141;50.414;8.050;2023-04-23T14:04:49;21.90;80.90
25188;DHT22;13141;50.414;8.050;2023-04-23T14:07:15;21.50;79.90
25188;DHT22;13141;50.414;8.050;2023-04-23T14:09:43;21.60;82.10
25188;DHT22;13141;50.414;8.050;2023-04-23T14:12:09;21.30;80.10
25188;DHT22;13141;50.414;8.050;2023-04-23T14:14:35;21.10;80.70
25188;DHT22;13141;50.414;8.050;2023-04-23T14:17:02;21.00;79.50
25188;DHT22;13141;50.414;8.050;2023-04-23T14:19:28;20.80;81.40
25188;DHT22;13141;50.414;8.050;2023-04-23T14:21:54;20.60;82.50
25188;DHT22;13141;50.414;8.050;2023-04-23T14:24:22;21.00;83.20
25188;DHT22;13141;50.414;8.050;2023-04-23T14:26:53;20.80;83.60
25188;DHT22;13141;50.414;8.050;2023-04-23T14:29:23;20.70;83.60
25188;DHT22;13141;50.414;8.050;2023-04-23T14:31:53;20.80;85.80
25188;DHT22;13141;50.414;8.050;2023-04-23T14:34:18;20.60;82.50
25188;DHT22;13141;50.414;8.050;2023-04-23T14:36:44;20.60;84.20
25188;DHT22;13141;50.414;8.050;2023-04-23T14:39:10;20.50;84.50
25188;DHT22;13141;50.414;8.050;2023-04-23T14:41:36;20.40;84.60
25188;DHT22;13141;50.414;8.050;2023-04-23T14:44:06;20.30;88.10
25188;DHT22;13141;50.414;8.050;2023-04-23T14:46:32;20.20;92.20
25188;DHT22;13141;50.414;8.050;2023-04-23T14:48:58;20.10;94.00
25188;DHT22;13141;50.414;8.050;2023-04-23T14:51:23;20.30;94.10
25188;DHT22;13141;50.414;8.050;2023-04-23T14:53:49;20.30;94.10
25188;DHT22;13141;50.414;8.050;2023-04-23T14:56:15;20.10;93.80
25188;DHT22;13141;50.414;8.050;2023-04-23T14:58:41;19.70;94.20
25188;DHT22;13141;50.414;8.050;2023-04-23T15:01:08;19.50;95.30
25188;DHT22;13141;50.414;8.050;2023-04-23T15:03:34;19.50;95.80
25188;DHT22;13141;50.414;8.050;2023-04-23T15:06:00;19.40;96.10
25188;DHT22;13141;50.414;8.050;2023-04-23T15:08:26;19.30;96.90
25188;DHT22;13141;50.414;8.050;2023-04-23T15:10:52;19.50;96.70
25188;DHT22;13141;50.414;8.050;2023-04-23T15:13:37;19.30;96.10
25188;DHT22;13141;50.414;8.050;2023-04-23T15:16:17;19.10;96.60
25188;DHT22;13141;50.414;8.050;2023-04-23T15:18:43;19.00;96.30
25188;DHT22;13141;50.414;8.050;2023-04-23T15:21:09;19.00;96.90
25188;DHT22;13141;50.414;8.050;2023-04-23T15:23:35;19.20;97.60
25188;DHT22;13141;50.414;8.050;2023-04-23T15:26:00;19.10;96.80